Time,TemperatureF,DewpointF,PressureIn,WindDirection,WindDirectionDegrees,WindSpeedMPH,WindSpeedGustMPH,Humidity,HourlyPrecipIn,Conditions,Clouds,dailyrainin,SoftwareType,DateUTC
2013-10-27 00:01:00,40.0,39.0,30.12,NNE,25,0.0,0.0,95,0.00,,,0.00,weatherlink.com 1.10,2013-10-27 04:01:00,
2013-10-27 00:16:00,40.0,39.0,30.12,NNE,25,0.0,1.0,95,0.00,,,0.00,weatherlink.com 1.10,2013-10-27 04:16:00,
2013-10-27 00:31:00,39.8,39.0,30.11,NNE,25,0.0,1.0,95,0.00,,,0.00,weatherlink.com 1.10,2013-10-27 04:31:00,
2013-10-27 00:46:00,39.6,38.0,30.11,NNE,25,0.0,1.0,95,0.00,,,0.00,weatherlink.com 1.10,2013-10-27 04:46:00,
2013-10-27 01:01:00,39.7,39.0,30.12,NNE,25,1.0,1.0,96,0.00,,,0.00,weatherlink.com 1.10,2013-10-27 05:01:00,
2013-10-27 01:16:00,41.1,40.0,30.11,East,84,0.0,1.0,96,0.00,,,0.00,weatherlink.com 1.10,2013-10-27 05:16:00,
2013-10-27 01:31:00,42.2,40.0,30.11,East,84,0.0,1.0,93,0.00,,,0.00,weatherlink.com 1.10,2013-10-27 05:31:00,
2013-10-27 01:46:00,41.8,40.0,30.11,East,85,0.0,1.0,93,0.00,,,0.00,weatherlink.com 1.10,2013-10-27 05:46:00,
2013-10-27 02:01:00,41.9,40.0,30.11,North,349,1.0,1.0,94,0.00,,,0.00,weatherlink.com 1.10,2013-10-27 06:01:00,
2013-10-27 02:16:00,42.3,40.0,30.10,NE,36,2.0,4.0,92,0.00,,,0.00,weatherlink.com 1.10,2013-10-27 06:16:00,
2013-10-27 02:31:00,45.0,43.0,30.10,North,356,0.0,2.0,91,0.00,,,0.00,weatherlink.com 1.10,2013-10-27 06:31:00,
2013-10-27 02:46:00,45.2,42.0,30.10,SE,134,0.0,3.0,89,0.00,,,0.00,weatherlink.com 1.10,2013-10-27 06:46:00,
2013-10-27 03:01:00,45.2,42.0,30.10,NW,321,0.0,4.0,89,0.00,,,0.00,weatherlink.com 1.10,2013-10-27 07:01:00,
2013-10-27 03:17:00,44.1,41.0,30.09,SSW,208,0.0,1.0,90,0.00,,,0.00,weatherlink.com 1.10,2013-10-27 07:17:00,
2013-10-27 03:32:00,42.6,40.0,30.09,SW,214,0.0,2.0,91,0.00,,,0.00,weatherlink.com 1.10,2013-10-27 07:32:00,
2013-10-27 03:47:00,41.8,40.0,30.09,SW,214,0.0,1.0,93,0.00,,,0.00,weatherlink.com 1.10,2013-10-27 07:47:00,
2013-10-27 04:02:00,40.9,39.0,30.09,WSW,243,0.0,1.0,94,0.00,,,0.00,weatherlink.com 1.10,2013-10-27 08:02:00,
2013-10-27 04:17:00,41.9,40.0,30.09,ESE,110,1.0,2.0,94,0.00,,,0.00,weatherlink.com 1.10,2013-10-27 08:17:00,
2013-10-27 04:32:00,42.7,40.0,30.09,ESE,103,1.0,1.0,91,0.00,,,0.00,weatherlink.com 1.10,2013-10-27 08:32:00,
2013-10-27 04:47:00,41.8,40.0,30.09,ESE,103,0.0,1.0,92,0.00,,,0.00,weatherlink.com 1.10,2013-10-27 08:47:00,
2013-10-27 05:02:00,41.1,39.0,30.08,ESE,103,1.0,1.0,93,0.00,,,0.00,weatherlink.com 1.10,2013-10-27 09:02:00,
2013-10-27 05:17:00,40.9,39.0,30.09,SE,146,0.0,1.0,94,0.00,,,0.00,weatherlink.com 1.10,2013-10-27 09:17:00,
2013-10-27 05:32:00,40.0,39.0,30.09,SSE,147,0.0,1.0,94,0.00,,,0.00,weatherlink.com 1.10,2013-10-27 09:32:00,
2013-10-27 05:47:00,40.0,39.0,30.09,SSE,147,0.0,1.0,95,0.00,,,0.00,weatherlink.com 1.10,2013-10-27 09:47:00,
2013-10-27 06:02:00,41.2,40.0,30.09,ESE,115,1.0,1.0,95,0.00,,,0.00,weatherlink.com 1.10,2013-10-27 10:02:00,
2013-10-27 06:17:00,40.9,39.0,30.09,ESE,115,0.0,1.0,93,0.00,,,0.00,weatherlink.com 1.10,2013-10-27 10:17:00,
2013-10-27 06:32:00,40.4,39.0,30.09,ESE,114,0.0,1.0,94,0.00,,,0.00,weatherlink.com 1.10,2013-10-27 10:32:00,
2013-10-27 06:47:00,40.2,39.0,30.10,ESE,115,0.0,1.0,95,0.00,,,0.00,weatherlink.com 1.10,2013-10-27 10:47:00,
2013-10-27 07:02:00,39.9,39.0,30.10,ESE,115,0.0,0.0,95,0.00,,,0.00,weatherlink.com 1.10,2013-10-27 11:02:00,
2013-10-27 07:17:00,40.0,39.0,30.11,SSE,149,0.0,1.0,96,0.00,,,0.00,weatherlink.com 1.10,2013-10-27 11:17:00,
2013-10-27 07:32:00,40.2,39.0,30.11,SSE,149,0.0,2.0,96,0.00,,,0.00,weatherlink.com 1.10,2013-10-27 11:32:00,
2013-10-27 07:47:00,39.7,38.0,30.12,SSE,149,0.0,1.0,95,0.00,,,0.00,weatherlink.com 1.10,2013-10-27 11:47:00,
2013-10-27 08:02:00,39.6,39.0,30.12,SSE,149,0.0,1.0,96,0.00,,,0.00,weatherlink.com 1.10,2013-10-27 12:02:00,
2013-10-27 08:17:00,39.9,39.0,30.13,SSE,149,0.0,0.0,96,0.00,,,0.00,weatherlink.com 1.10,2013-10-27 12:17:00,
2013-10-27 08:32:00,41.3,41.0,30.13,SSE,148,0.0,1.0,97,0.00,,,0.00,weatherlink.com 1.10,2013-10-27 12:32:00,
2013-10-27 08:47:00,41.2,40.0,30.13,SSE,148,0.0,1.0,95,0.00,,,0.00,weatherlink.com 1.10,2013-10-27 12:47:00,
2013-10-27 09:02:00,42.6,42.0,30.13,SSE,149,0.0,1.0,97,0.00,,,0.00,weatherlink.com 1.10,2013-10-27 13:02:00,
2013-10-27 09:17:00,42.8,42.0,30.14,SSE,148,0.0,1.0,95,0.00,,,0.00,weatherlink.com 1.10,2013-10-27 13:17:00,
2013-10-27 09:32:00,43.7,43.0,30.15,SSE,148,1.0,1.0,96,0.00,,,0.00,weatherlink.com 1.10,2013-10-27 13:32:00,
2013-10-27 09:47:00,46.1,45.0,30.15,SSE,148,0.0,1.0,95,0.00,,,0.00,weatherlink.com 1.10,2013-10-27 13:47:00,
2013-10-27 10:02:00,48.7,45.0,30.15,SSE,148,0.0,1.0,88,0.00,,,0.00,weatherlink.com 1.10,2013-10-27 14:02:00,
2013-10-27 10:17:00,51.7,46.0,30.15,SSE,148,1.0,1.0,81,0.00,,,0.00,weatherlink.com 1.10,2013-10-27 14:17:00,
2013-10-27 10:32:00,53.5,47.0,30.15,SSE,148,1.0,1.0,78,0.00,,,0.00,weatherlink.com 1.10,2013-10-27 14:32:00,
2013-10-27 10:47:00,54.3,47.0,30.15,SSE,148,0.0,1.0,76,0.00,,,0.00,weatherlink.com 1.10,2013-10-27 14:47:00,
2013-10-27 11:02:00,54.7,46.0,30.15,SSE,148,0.0,1.0,72,0.00,,,0.00,weatherlink.com 1.10,2013-10-27 15:02:00,
2013-10-27 11:17:00,55.5,47.0,30.15,SSE,149,0.0,1.0,73,0.00,,,0.00,weatherlink.com 1.10,2013-10-27 15:17:00,
2013-10-27 11:32:00,56.3,48.0,30.15,SE,142,0.0,1.0,73,0.00,,,0.00,weatherlink.com 1.10,2013-10-27 15:32:00,
2013-10-27 11:47:00,57.3,48.0,30.15,North,11,0.0,2.0,71,0.00,,,0.00,weatherlink.com 1.10,2013-10-27 15:47:00,
2013-10-27 12:02:00,57.8,48.0,30.15,ENE,69,0.0,2.0,69,0.00,,,0.00,weatherlink.com 1.10,2013-10-27 16:02:00,
2013-10-27 12:17:00,58.0,48.0,30.15,ENE,70,0.0,1.0,70,0.00,,,0.00,weatherlink.com 1.10,2013-10-27 16:17:00,
2013-10-27 12:32:00,59.8,49.0,30.14,SW,235,2.0,3.0,67,0.00,,,0.00,weatherlink.com 1.10,2013-10-27 16:32:00,
2013-10-27 12:48:00,60.3,49.0,30.14,ESE,115,1.0,3.0,67,0.00,,,0.00,weatherlink.com 1.10,2013-10-27 16:48:00,
2013-10-27 13:03:00,61.0,50.0,30.13,WNW,300,1.0,5.0,67,0.00,,,0.00,weatherlink.com 1.10,2013-10-27 17:03:00,
2013-10-27 13:18:00,61.9,49.0,30.13,ESE,108,0.0,3.0,62,0.00,,,0.00,weatherlink.com 1.10,2013-10-27 17:18:00,
2013-10-27 13:33:00,63.1,50.0,30.12,NNE,26,1.0,3.0,63,0.00,,,0.00,weatherlink.com 1.10,2013-10-27 17:33:00,
2013-10-27 13:48:00,63.8,50.0,30.11,NE,44,0.0,3.0,62,0.00,,,0.00,weatherlink.com 1.10,2013-10-27 17:48:00,
2013-10-27 14:03:00,63.8,49.0,30.11,ESE,111,1.0,4.0,60,0.00,,,0.00,weatherlink.com 1.10,2013-10-27 18:03:00,
2013-10-27 14:18:00,64.7,51.0,30.10,ENE,68,0.0,3.0,61,0.00,,,0.00,weatherlink.com 1.10,2013-10-27 18:18:00,
2013-10-27 14:33:00,65.4,51.0,30.09,SW,220,0.0,4.0,59,0.00,,,0.00,weatherlink.com 1.10,2013-10-27 18:33:00,
2013-10-27 14:48:00,66.2,50.0,30.09,ENE,70,1.0,8.0,56,0.00,,,0.00,weatherlink.com 1.10,2013-10-27 18:48:00,
2013-10-27 15:03:00,67.2,53.0,30.09,South,189,0.0,3.0,60,0.00,,,0.00,weatherlink.com 1.10,2013-10-27 19:03:00,
2013-10-27 15:18:00,67.4,52.0,30.08,NE,34,0.0,3.0,58,0.00,,,0.00,weatherlink.com 1.10,2013-10-27 19:18:00,
2013-10-27 15:33:00,67.5,53.0,30.08,East,88,1.0,4.0,60,0.00,,,0.00,weatherlink.com 1.10,2013-10-27 19:33:00,
2013-10-27 15:48:00,68.1,52.0,30.07,East,79,1.0,3.0,56,0.00,,,0.00,weatherlink.com 1.10,2013-10-27 19:48:00,
2013-10-27 16:03:00,67.2,52.0,30.07,NNE,18,0.0,1.0,58,0.00,,,0.00,weatherlink.com 1.10,2013-10-27 20:03:00,
2013-10-27 16:18:00,67.0,52.0,30.07,ENE,57,1.0,3.0,60,0.00,,,0.00,weatherlink.com 1.10,2013-10-27 20:18:00,
2013-10-27 16:33:00,66.8,52.0,30.07,NE,40,0.0,1.0,59,0.00,,,0.00,weatherlink.com 1.10,2013-10-27 20:33:00,
2013-10-27 16:48:00,66.8,53.0,30.07,ENE,72,1.0,4.0,61,0.00,,,0.00,weatherlink.com 1.10,2013-10-27 20:48:00,
2013-10-27 17:03:00,67.0,53.0,30.07,NE,53,0.0,3.0,61,0.00,,,0.00,weatherlink.com 1.10,2013-10-27 21:03:00,
2013-10-27 17:18:00,67.0,53.0,30.07,NNE,32,1.0,4.0,62,0.00,,,0.00,weatherlink.com 1.10,2013-10-27 21:18:00,
2013-10-27 17:33:00,66.3,53.0,30.07,NNE,22,0.0,1.0,63,0.00,,,0.00,weatherlink.com 1.10,2013-10-27 21:33:00,
2013-10-27 17:48:00,65.2,53.0,30.07,East,87,0.0,1.0,65,0.00,,,0.00,weatherlink.com 1.10,2013-10-27 21:48:00,
2013-10-27 18:03:00,64.3,54.0,30.07,East,86,0.0,1.0,69,0.00,,,0.00,weatherlink.com 1.10,2013-10-27 22:03:00,
2013-10-27 18:18:00,62.3,54.0,30.08,East,86,0.0,0.0,73,0.00,,,0.00,weatherlink.com 1.10,2013-10-27 22:18:00,
2013-10-27 18:33:00,60.7,53.0,30.07,East,86,0.0,1.0,77,0.00,,,0.00,weatherlink.com 1.10,2013-10-27 22:33:00,
2013-10-27 18:48:00,59.0,53.0,30.08,East,86,0.0,1.0,81,0.00,,,0.00,weatherlink.com 1.10,2013-10-27 22:48:00,
2013-10-27 19:03:00,57.6,53.0,30.08,East,86,0.0,0.0,85,0.00,,,0.00,weatherlink.com 1.10,2013-10-27 23:03:00,
2013-10-27 19:19:00,56.7,53.0,30.08,East,86,0.0,0.0,88,0.00,,,0.00,weatherlink.com 1.10,2013-10-27 23:19:00,
2013-10-27 19:33:00,56.5,53.0,30.09,East,86,0.0,0.0,88,0.00,,,0.00,weatherlink.com 1.10,2013-10-27 23:33:00,
2013-10-27 19:48:00,56.3,54.0,30.09,East,86,0.0,0.0,90,0.00,,,0.00,weatherlink.com 1.10,2013-10-27 23:48:00,
2013-10-27 20:03:00,56.6,54.0,30.09,East,86,0.0,1.0,89,0.00,,,0.00,weatherlink.com 1.10,2013-10-28 00:03:00,
2013-10-27 20:18:00,56.2,53.0,30.09,East,86,0.0,0.0,90,0.00,,,0.00,weatherlink.com 1.10,2013-10-28 00:18:00,
2013-10-27 20:33:00,55.6,53.0,30.10,East,86,0.0,1.0,91,0.00,,,0.00,weatherlink.com 1.10,2013-10-28 00:33:00,
2013-10-27 20:48:00,55.2,53.0,30.09,East,86,0.0,0.0,92,0.00,,,0.00,weatherlink.com 1.10,2013-10-28 00:48:00,
2013-10-27 21:03:00,54.9,53.0,30.10,East,86,0.0,0.0,92,0.00,,,0.00,weatherlink.com 1.10,2013-10-28 01:03:00,
2013-10-27 21:18:00,54.7,53.0,30.10,East,86,0.0,0.0,93,0.00,,,0.00,weatherlink.com 1.10,2013-10-28 01:18:00,
2013-10-27 21:33:00,55.0,53.0,30.10,East,87,0.0,1.0,92,0.00,,,0.00,weatherlink.com 1.10,2013-10-28 01:33:00,
2013-10-27 21:48:00,54.3,52.0,30.10,East,86,0.0,1.0,93,0.00,,,0.00,weatherlink.com 1.10,2013-10-28 01:48:00,
2013-10-27 22:03:00,53.3,51.0,30.11,East,86,0.0,0.0,93,0.00,,,0.00,weatherlink.com 1.10,2013-10-28 02:03:00,
2013-10-27 22:18:00,53.3,52.0,30.12,East,97,0.0,1.0,95,0.00,,,0.00,weatherlink.com 1.10,2013-10-28 02:18:00,
2013-10-27 22:33:00,53.7,52.0,30.12,East,97,0.0,1.0,95,0.00,,,0.00,weatherlink.com 1.10,2013-10-28 02:33:00,
2013-10-27 22:48:00,52.6,51.0,30.13,East,97,0.0,1.0,93,0.00,,,0.00,weatherlink.com 1.10,2013-10-28 02:48:00,
2013-10-27 23:03:00,52.4,51.0,30.12,East,97,0.0,0.0,95,0.00,,,0.00,weatherlink.com 1.10,2013-10-28 03:03:00,
2013-10-27 23:18:00,52.4,51.0,30.12,East,97,0.0,0.0,95,0.00,,,0.00,weatherlink.com 1.10,2013-10-28 03:18:00,
2013-10-27 23:33:00,51.6,50.0,30.12,East,97,0.0,0.0,95,0.00,,,0.00,weatherlink.com 1.10,2013-10-28 03:33:00,
2013-10-27 23:48:00,51.0,50.0,30.12,East,98,0.0,1.0,95,0.00,,,0.00,weatherlink.com 1.10,2013-10-28 03:48:00,